Time;durP1;ratioP1;P1;durP2;ratioP2;P2;SDS_P1;SDS_P2;PMS_P1;PMS_P2;Temp;Humidity;BMP_temperature;BMP_pressure;BME280_temperature;BME280_humidity;BME280_pressure;Samples;Min_cycle;Max_cycle;Signal;HPM_P1;HPM_P2
2022/10/09 00:01:08;;;;;;;0.50;0.33;;;17.40;99.90;;;18.19;52.22;102148.41;4926253;28;97520;-49
2022/10/09 00:03:36;;;;;;;0.23;0.23;;;17.60;99.90;;;18.19;52.15;102149.28;4925543;28;101108;-47
2022/10/09 00:06:03;;;;;;;0.97;0.80;;;17.60;99.90;;;18.18;51.89;102149.34;4928584;28;100611;-45
2022/10/09 00:08:29;;;;;;;0.30;0.30;;;17.60;99.90;;;18.20;51.97;102150.16;4930143;28;99895;-47
2022/10/09 00:10:56;;;;;;;0.30;0.17;;;17.70;99.90;;;18.25;51.91;102149.03;4926320;28;98731;-47
2022/10/09 00:13:22;;;;;;;0.47;0.40;;;17.80;99.90;;;18.24;51.74;102154.44;4931003;28;98524;-45
2022/10/09 00:15:48;;;;;;;0.33;0.30;;;17.80;99.90;;;18.21;52.01;102157.22;4923045;28;101100;-48
2022/10/09 00:18:16;;;;;;;0.20;0.20;;;17.60;99.90;;;18.22;52.06;102153.63;4929169;28;98379;-47
2022/10/09 00:20:45;;;;;;;2.33;0.67;;;17.60;99.90;;;18.19;51.93;102153.75;4928858;28;98298;-47
2022/10/09 00:23:16;;;;;;;0.30;0.30;;;17.60;99.90;;;18.21;51.83;102151.88;4929177;28;97741;-48
2022/10/09 00:25:57;;;;;;;0.70;0.40;;;17.60;99.90;;;18.27;51.96;102146.28;4927305;28;97906;-45
2022/10/09 00:28:25;;;;;;;0.60;0.40;;;17.80;99.90;;;18.25;51.77;102148.16;4927071;28;97825;-45
2022/10/09 00:30:52;;;;;;;0.50;0.20;;;17.80;99.90;;;18.21;51.78;102152.75;4923498;28;99220;-47
2022/10/09 00:33:19;;;;;;;0.83;0.43;;;17.60;99.90;;;18.19;51.71;102143.94;4926083;28;97636;-48
2022/10/09 00:35:45;;;;;;;0.40;0.30;;;17.60;99.90;;;18.16;52.07;102143.22;4924032;28;98931;-46
2022/10/09 00:38:11;;;;;;;1.07;0.57;;;17.50;99.90;;;18.12;51.88;102148.69;4925013;28;100470;-48
2022/10/09 00:40:38;;;;;;;0.17;0.17;;;17.50;99.90;;;18.06;52.01;102143.59;4924479;28;100127;-47
2022/10/09 00:43:16;;;;;;;0.20;0.20;;;17.40;99.90;;;18.05;52.50;102149.88;4927328;28;100467;-51
2022/10/09 00:45:53;;;;;;;0.23;0.23;;;17.40;99.90;;;18.08;51.90;102139.09;4922547;28;100206;-47
2022/10/09 00:48:19;;;;;;;0.83;0.40;;;17.50;99.90;;;18.07;52.12;102134.66;4929566;28;97490;-51
2022/10/09 00:50:52;;;;;;;0.90;0.30;;;17.50;99.90;;;17.98;52.00;102144.91;4923148;28;97535;-48
2022/10/09 00:53:21;;;;;;;0.53;0.30;;;17.30;99.70;;;17.93;52.59;102147.75;4924871;28;98508;-49
2022/10/09 00:55:48;;;;;;;0.77;0.40;;;17.10;99.90;;;17.95;52.55;102148.56;4936315;28;101825;-47
2022/10/09 00:58:13;;;;;;;0.73;0.40;;;17.20;99.90;;;17.96;52.30;102149.44;4929179;28;100076;-46
2022/10/09 01:00:40;;;;;;;0.50;0.23;;;17.30;99.90;;;17.89;52.48;102159.50;4922262;28;97583;-45
2022/10/09 01:03:06;;;;;;;0.80;0.50;;;17.10;99.90;;;17.89;52.49;102155.97;4926480;28;98892;-48
2022/10/09 01:06:06;;;;;;;0.10;0.10;;;17.10;99.90;;;17.84;52.72;102156.16;4924643;28;104549;-53
2022/10/09 01:09:24;;;;;;;0.67;0.40;;;17.10;99.90;;;17.79;53.21;102150.13;4921861;28;97742;-55
2022/10/09 01:12:10;;;;;;;0.23;0.23;;;16.90;99.90;;;17.76;53.03;102155.59;4914701;28;97680;-45
2022/10/09 01:14:56;;;;;;;0.53;0.20;;;17.00;99.90;;;17.74;53.31;102157.47;4922603;28;97860;-49
2022/10/09 01:17:42;;;;;;;0.27;0.20;;;17.00;99.90;;;17.74;53.22;102152.13;4926629;28;98411;-45
2022/10/09 01:20:22;;;;;;;0.30;0.27;;;17.00;99.90;;;17.79;52.84;102156.38;4927693;28;99974;-46
2022/10/09 01:23:18;;;;;;;0.40;0.30;;;17.10;99.90;;;17.83;52.98;102144.63;4941814;28;98960;-45
2022/10/09 01:26:14;;;;;;;0.23;0.23;;;17.20;99.90;;;17.87;52.62;102149.81;4927762;28;97256;-44
2022/10/09 01:28:46;;;;;;;0.40;0.30;;;17.20;99.90;;;17.86;52.80;102156.09;4926998;28;98730;-51
2022/10/09 01:31:13;;;;;;;0.43;0.43;;;17.20;99.90;;;17.81;52.57;102143.81;4930558;28;98380;-49
2022/10/09 01:33:39;;;;;;;0.13;0.13;;;17.00;99.80;;;17.72;52.80;102148.66;4928779;28;99724;-51
2022/10/09 01:36:07;;;;;;;1.10;0.20;;;16.80;99.90;;;17.66;52.86;102143.56;4950968;28;100737;-49
2022/10/09 01:38:33;;;;;;;0.60;0.30;;;16.70;99.60;;;17.54;53.44;102148.47;4947654;28;98041;-48
2022/10/09 01:41:02;;;;;;;0.30;0.20;;;16.60;99.90;;;17.47;53.85;102138.97;4956025;28;97054;-46
2022/10/09 01:43:28;;;;;;;0.23;0.23;;;16.40;99.90;;;17.50;53.52;102137.97;4942987;28;97081;-46
2022/10/09 01:46:29;;;;;;;0.20;0.17;;;16.60;99.90;;;17.51;53.77;102143.28;4945251;28;101940;-49
2022/10/09 01:49:21;;;;;;;0.30;0.20;;;16.60;99.90;;;17.52;53.53;102139.66;4947105;28;97313;-50
2022/10/09 01:52:27;;;;;;;0.10;0.10;;;16.70;99.90;;;17.38;53.35;102139.38;4942791;28;98326;-47
2022/10/09 01:55:31;;;;;;;0.30;0.30;;;16.50;99.50;;;17.19;54.54;102133.00;4953890;28;97205;-47
2022/10/09 01:58:12;;;;;;;0.53;0.50;;;16.00;99.90;;;17.15;54.36;102131.41;4945913;28;97472;-50
2022/10/09 02:00:50;;;;;;;0.20;0.10;;;16.00;99.90;;;17.04;54.72;102128.28;4948615;28;97556;-46
2022/10/09 02:03:17;;;;;;;0.10;0.00;;;15.90;99.90;;;16.97;55.09;102129.47;4945382;28;97176;-48
2022/10/09 02:05:46;;;;;;;0.37;0.20;;;15.70;99.90;;;17.04;55.00;102125.63;4947265;28;102222;-51
2022/10/09 02:08:18;;;;;;;0.20;0.20;;;16.00;99.90;;;17.08;54.75;102125.47;4952488;28;98112;-48
2022/10/09 02:10:46;;;;;;;0.37;0.27;;;16.10;99.90;;;17.15;54.68;102120.75;4945085;28;100055;-51
2022/10/09 02:13:12;;;;;;;0.60;0.30;;;16.20;99.90;;;17.08;54.27;102124.59;4948857;28;96958;-48
2022/10/09 02:16:04;;;;;;;0.20;0.20;;;16.10;99.90;;;17.04;54.76;102125.63;4942780;28;97274;-46
2022/10/09 02:18:45;;;;;;;0.23;0.10;;;15.90;99.90;;;17.08;54.49;102124.59;4949385;28;97790;-49
2022/10/09 02:21:26;;;;;;;0.20;0.17;;;16.10;99.90;;;17.05;54.48;102125.56;4947489;28;102820;-45
2022/10/09 02:23:54;;;;;;;0.20;0.20;;;16.00;99.90;;;17.02;54.95;102128.34;4946945;28;97397;-50
2022/10/09 02:26:20;;;;;;;0.27;0.23;;;15.90;99.90;;;17.06;54.56;102121.09;4948276;28;97370;-50
2022/10/09 02:28:46;;;;;;;0.30;0.20;;;16.10;99.90;;;17.10;54.64;102118.25;4945958;28;111612;-49
2022/10/09 02:31:30;;;;;;;0.67;0.30;;;16.20;99.90;;;17.10;54.52;102122.72;4948986;28;113877;-49
2022/10/09 02:34:05;;;;;;;0.20;0.20;;;16.10;99.90;;;17.10;54.57;102122.72;4942023;28;97247;-45
2022/10/09 02:36:33;;;;;;;0.37;0.37;;;16.10;99.90;;;17.14;54.23;102117.22;4948944;28;96811;-47
2022/10/09 02:38:59;;;;;;;0.17;0.17;;;16.20;99.90;;;17.11;54.42;102117.34;4944251;28;97366;-45
2022/10/09 02:41:26;;;;;;;0.40;0.40;;;16.20;99.90;;;17.12;54.38;102115.53;4961956;28;97499;-51
2022/10/09 02:43:52;;;;;;;0.40;0.40;;;16.10;99.90;;;17.16;54.19;102117.16;4950952;28;97152;-45
2022/10/09 02:46:18;;;;;;;0.20;0.20;;;16.20;99.90;;;17.18;54.31;102115.28;4952921;28;96992;-48
2022/10/09 02:48:44;;;;;;;0.20;0.20;;;16.20;99.90;;;17.20;54.33;102116.09;4949767;28;97403;-48
2022/10/09 02:51:10;;;;;;;0.33;0.33;;;16.30;99.90;;;17.21;54.15;102115.16;4948653;28;97160;-50
2022/10/09 02:53:35;;;;;;;0.60;0.40;;;16.20;99.90;;;17.22;54.00;102116.91;4948389;28;123677;-46
2022/10/09 02:56:02;;;;;;;0.20;0.20;;;16.30;99.90;;;17.33;53.98;102120.00;4956350;28;97095;-47
2022/10/09 02:58:32;;;;;;;0.50;0.30;;;16.50;99.90;;;17.33;53.69;102125.31;4955105;28;97378;-49
2022/10/09 03:00:58;;;;;;;0.17;0.10;;;16.50;99.90;;;17.36;53.57;102114.56;4950105;28;102624;-45
2022/10/09 03:03:24;;;;;;;0.30;0.30;;;16.50;99.90;;;17.40;53.72;102118.81;4952128;28;97681;-48
2022/10/09 03:06:02;;;;;;;0.33;0.20;;;16.70;99.90;;;17.40;53.40;102116.16;4949623;28;97478;-47
2022/10/09 03:08:28;;;;;;;0.10;0.10;;;16.60;99.90;;;17.42;53.39;102113.44;4951494;28;102397;-45
2022/10/09 03:10:53;;;;;;;0.40;0.20;;;16.60;99.90;;;17.42;53.46;102124.97;4951621;28;98371;-45
2022/10/09 03:13:19;;;;;;;0.23;0.10;;;16.60;99.90;;;17.43;53.33;102115.16;4950781;28;97363;-48
2022/10/09 03:15:45;;;;;;;0.03;0.03;;;16.60;99.90;;;17.46;53.12;102121.22;4950534;28;99433;-51
2022/10/09 03:18:11;;;;;;;0.43;0.43;;;16.70;99.90;;;17.44;53.25;102120.44;4955462;28;97485;-45
2022/10/09 03:20:37;;;;;;;0.20;0.20;;;16.60;99.90;;;17.44;53.23;102123.09;4952752;28;100574;-48
2022/10/09 03:23:03;;;;;;;0.30;0.30;;;16.60;99.90;;;17.42;53.30;102124.09;4956783;28;99725;-46
2022/10/09 03:25:29;;;;;;;0.13;0.13;;;16.60;99.90;;;17.38;53.51;102111.81;4952039;28;99020;-46
2022/10/09 03:27:55;;;;;;;0.10;0.10;;;16.50;99.90;;;17.29;53.61;102118.38;4953739;28;97672;-45
2022/10/09 03:30:20;;;;;;;0.13;0.13;;;16.30;99.90;;;17.24;53.70;102120.38;4956453;28;116540;-47
2022/10/09 03:32:46;;;;;;;0.00;0.00;;;16.20;99.90;;;17.17;54.00;102109.06;4946015;28;111710;-48
2022/10/09 03:35:12;;;;;;;0.20;0.20;;;16.10;99.90;;;17.11;54.00;102108.47;4946825;28;97290;-49
2022/10/09 03:37:38;;;;;;;0.40;0.20;;;16.00;99.90;;;17.04;54.23;102113.16;4951161;28;97425;-45
2022/10/09 03:40:05;;;;;;;0.30;0.27;;;15.90;99.90;;;17.00;54.27;102116.03;4957125;28;97423;-48
2022/10/09 03:42:31;;;;;;;0.30;0.30;;;15.80;99.90;;;17.02;54.38;102108.81;4955264;28;97087;-52
2022/10/09 03:44:59;;;;;;;1.10;0.10;;;16.00;99.90;;;17.04;54.24;102106.97;4953445;28;97353;-47
2022/10/09 03:47:25;;;;;;;0.10;0.10;;;16.10;99.90;;;17.11;54.09;102103.13;4953107;28;97492;-50
2022/10/09 03:49:51;;;;;;;0.20;0.20;;;16.20;99.90;;;17.18;53.91;102104.63;4953316;28;102529;-51
2022/10/09 03:52:17;;;;;;;0.20;0.20;;;16.50;99.90;;;17.21;53.45;102101.81;4950479;28;107361;-48
2022/10/09 03:54:42;;;;;;;0.50;0.40;;;16.40;99.90;;;17.10;53.75;102099.59;4952786;28;102941;-51
2022/10/09 03:57:08;;;;;;;0.20;0.20;;;16.20;99.90;;;17.11;53.88;102104.00;4955711;28;97247;-45
2022/10/09 03:59:34;;;;;;;0.40;0.30;;;16.20;99.90;;;17.13;54.07;102102.13;4953278;28;98282;-46
2022/10/09 04:02:00;;;;;;;0.57;0.30;;;16.30;99.90;;;17.19;53.76;102098.34;4955850;28;97280;-49
2022/10/09 04:04:26;;;;;;;0.10;0.10;;;16.40;99.90;;;17.25;53.86;102100.78;4956209;28;97965;-46
2022/10/09 04:06:52;;;;;;;0.10;0.10;;;16.50;99.90;;;17.30;53.54;102096.13;4948813;28;97358;-48
2022/10/09 04:09:18;;;;;;;0.10;0.10;;;16.60;99.90;;;17.33;53.41;102087.97;4956047;28;98434;-49
2022/10/09 04:11:43;;;;;;;0.30;0.30;;;16.60;99.90;;;17.29;53.59;102097.06;4953153;28;97163;-49
2022/10/09 04:14:09;;;;;;;0.17;0.13;;;16.50;99.90;;;17.26;53.70;102097.19;4947651;28;117484;-50
2022/10/09 04:16:35;;;;;;;0.40;0.20;;;16.40;99.90;;;17.27;53.79;102096.25;4945949;28;97447;-51
2022/10/09 04:19:01;;;;;;;0.10;0.10;;;16.40;99.90;;;17.25;53.62;102095.44;4955787;28;97380;-46
2022/10/09 04:21:27;;;;;;;0.13;0.13;;;16.40;99.80;;;17.11;53.79;102097.81;4955410;28;98863;-48
2022/10/09 04:23:52;;;;;;;0.10;0.10;;;16.10;99.90;;;17.10;53.98;102096.06;4952654;28;100910;-50
2022/10/09 04:26:18;;;;;;;0.20;0.20;;;16.00;99.90;;;17.07;53.71;102097.06;4956134;28;97376;-48
2022/10/09 04:28:44;;;;;;;0.10;0.10;;;16.00;99.70;;;16.97;54.28;102094.81;4953125;28;97614;-48
2022/10/09 04:31:10;;;;;;;0.20;0.20;;;15.80;99.90;;;16.97;54.47;102089.50;4958203;28;97015;-52
2022/10/09 04:33:36;;;;;;;0.10;0.07;;;15.80;99.90;;;16.97;54.32;102084.16;4953492;28;97233;-46
2022/10/09 04:36:01;;;;;;;0.10;0.10;;;15.90;99.90;;;16.94;54.23;102090.50;4956470;28;106046;-50
2022/10/09 04:38:27;;;;;;;0.30;0.30;;;15.80;99.90;;;16.94;54.24;102091.34;4954278;28;97493;-54
2022/10/09 04:40:57;;;;;;;0.40;0.33;;;15.90;99.90;;;16.92;54.48;102087.88;4950207;28;107735;-45
2022/10/09 04:43:23;;;;;;;0.43;0.30;;;15.90;99.90;;;16.86;53.99;102087.25;4955229;28;97209;-45
2022/10/09 04:45:49;;;;;;;0.30;0.30;;;15.80;98.60;;;16.76;54.25;102080.53;4960414;28;100992;-49
2022/10/09 04:48:14;;;;;;;1.37;0.53;;;15.50;99.90;;;16.68;55.07;102078.19;4962659;28;98534;-46
2022/10/09 04:50:40;;;;;;;0.07;0.03;;;15.40;99.90;;;16.67;55.05;102079.09;4958528;28;107658;-45
2022/10/09 04:53:08;;;;;;;0.20;0.20;;;15.40;99.90;;;16.69;54.89;102077.25;4961737;28;105201;-46
2022/10/09 04:55:44;;;;;;;0.10;0.10;;;15.50;99.90;;;16.73;54.93;102076.19;4954024;28;97280;-49
2022/10/09 04:58:11;;;;;;;0.03;0.00;;;15.70;99.90;;;16.73;54.61;102081.50;4958889;28;97025;-45
2022/10/09 05:00:45;;;;;;;0.83;0.20;;;15.70;99.90;;;16.62;54.42;102071.22;4957521;28;96676;-45
2022/10/09 05:03:11;;;;;;;0.00;0.00;;;15.50;99.60;;;16.52;54.58;102077.00;4960917;28;98073;-49
2022/10/09 05:05:38;;;;;;;0.57;0.47;;;15.20;99.90;;;16.43;55.46;102072.00;4952360;28;97005;-46
2022/10/09 05:08:04;;;;;;;0.20;0.20;;;15.10;99.90;;;16.46;55.54;102071.88;4955894;28;97196;-46
2022/10/09 05:10:33;;;;;;;0.10;0.10;;;15.30;99.90;;;16.54;55.37;102065.34;4955986;28;98764;-48
2022/10/09 05:12:59;;;;;;;0.10;0.10;;;15.50;99.90;;;16.62;55.13;102073.91;4952625;28;96954;-46
2022/10/09 05:15:25;;;;;;;0.20;0.10;;;15.70;99.90;;;16.73;54.99;102075.31;4955670;28;97285;-47
2022/10/09 05:17:51;;;;;;;0.40;0.40;;;15.90;99.90;;;16.80;54.39;102061.72;4948981;28;97207;-50
2022/10/09 05:20:17;;;;;;;1.70;0.10;;;16.00;99.90;;;16.81;54.58;102058.13;4954418;28;110339;-50
2022/10/09 05:22:46;;;;;;;0.30;0.30;;;16.00;99.90;;;16.74;54.73;102067.25;4943182;28;98731;-46
2022/10/09 05:25:13;;;;;;;0.10;0.10;;;15.70;99.90;;;16.76;54.52;102060.06;4950737;28;100385;-47
2022/10/09 05:27:39;;;;;;;0.27;0.27;;;15.70;99.90;;;16.74;54.42;102067.25;4953879;28;97270;-48
2022/10/09 05:30:06;;;;;;;0.10;0.07;;;15.60;99.90;;;16.71;54.45;102070.06;4956626;28;112015;-46
2022/10/09 05:32:32;;;;;;;0.20;0.20;;;15.60;99.90;;;16.57;54.67;102069.69;4956145;28;96988;-45
2022/10/09 05:34:58;;;;;;;0.40;0.30;;;15.30;99.70;;;16.53;55.17;102068.06;4953729;28;110828;-46
2022/10/09 05:37:24;;;;;;;0.43;0.43;;;15.20;99.90;;;16.44;55.10;102071.06;4956054;28;123641;-47
2022/10/09 05:39:49;;;;;;;0.20;0.20;;;15.10;99.90;;;16.44;55.55;102073.75;4951850;28;112623;-47
2022/10/09 05:42:15;;;;;;;0.40;0.13;;;15.10;99.90;;;16.45;55.28;102070.16;4951586;28;102486;-47
2022/10/09 05:44:41;;;;;;;0.20;0.20;;;15.20;99.90;;;16.46;55.63;102066.56;4952414;28;97135;-46
2022/10/09 05:47:06;;;;;;;0.37;0.23;;;15.20;99.90;;;16.47;55.49;102062.97;4954022;28;104995;-47
2022/10/09 05:49:32;;;;;;;0.67;0.40;;;15.20;99.90;;;16.45;55.30;102067.47;4952566;28;100362;-53
2022/10/09 05:51:58;;;;;;;0.43;0.30;;;15.20;99.90;;;16.46;55.34;102067.41;4953432;28;97153;-45
2022/10/09 05:54:24;;;;;;;0.40;0.20;;;15.30;99.90;;;16.50;55.11;102068.19;4958624;28;97507;-48
2022/10/09 05:56:50;;;;;;;0.50;0.17;;;15.30;99.90;;;16.56;55.06;102073.28;4948850;28;97580;-50
2022/10/09 05:59:20;;;;;;;0.10;0.10;;;15.50;99.90;;;16.62;55.08;102070.38;4953651;28;98133;-46
2022/10/09 06:01:49;;;;;;;0.10;0.10;;;15.60;99.90;;;16.67;54.88;102076.44;4951737;28;97155;-46
2022/10/09 06:04:21;;;;;;;0.30;0.30;;;15.70;99.90;;;16.70;54.62;102065.66;4953742;28;97207;-47
2022/10/09 06:06:48;;;;;;;0.10;0.10;;;15.70;99.90;;;16.78;54.43;102066.25;4944109;28;97421;-47
2022/10/09 06:09:24;;;;;;;0.20;0.20;;;15.90;99.90;;;16.87;54.38;102068.53;4952406;28;98548;-47
2022/10/09 06:11:51;;;;;;;0.13;0.10;;;16.00;99.90;;;16.92;54.20;102063.00;4952085;28;97238;-45
2022/10/09 06:14:20;;;;;;;0.17;0.10;;;16.10;99.90;;;16.98;53.98;102064.56;4951410;28;97619;-47
2022/10/09 06:16:46;;;;;;;0.93;0.10;;;16.20;99.90;;;17.02;53.78;102060.84;4950142;28;97118;-46
2022/10/09 06:19:15;;;;;;;0.40;0.30;;;16.20;99.90;;;17.05;53.78;102066.91;4954411;28;97536;-45
2022/10/09 06:21:42;;;;;;;0.20;0.13;;;16.20;99.90;;;17.10;53.75;102070.28;4950429;28;96878;-45
2022/10/09 06:24:21;;;;;;;0.10;0.10;;;16.30;99.90;;;17.22;53.22;102068.91;4951727;28;98751;-47
2022/10/09 06:26:46;;;;;;;0.70;0.30;;;16.50;99.90;;;17.30;53.04;102066.78;4954116;28;97100;-46
2022/10/09 06:29:12;;;;;;;0.13;0.10;;;16.70;99.90;;;17.35;52.82;102067.44;4952076;28;96924;-47
2022/10/09 06:31:38;;;;;;;0.00;0.00;;;16.80;99.90;;;17.36;52.96;102070.97;4950594;28;97082;-49
2022/10/09 06:34:04;;;;;;;0.53;0.30;;;16.70;99.90;;;17.34;52.51;102068.38;4954543;28;97323;-46
2022/10/09 06:36:33;;;;;;;0.50;0.50;;;16.60;99.20;;;17.24;52.35;102072.38;4953070;28;101067;-47
2022/10/09 06:39:03;;;;;;;0.27;0.27;;;16.40;98.30;;;17.13;53.36;102079.94;4946412;28;102665;-49
2022/10/09 06:41:29;;;;;;;0.47;0.30;;;16.00;99.90;;;16.96;53.89;102075.28;4948827;28;97514;-47
2022/10/09 06:44:01;;;;;;;1.10;0.20;;;15.80;99.90;;;16.91;54.13;102078.13;4952144;28;97077;-46
2022/10/09 06:46:36;;;;;;;0.10;0.10;;;15.70;99.90;;;16.81;53.96;102074.09;4953369;28;98197;-49
2022/10/09 06:49:03;;;;;;;0.97;0.40;;;15.60;99.90;;;16.78;54.55;102073.34;4946381;28;101061;-46
2022/10/09 06:51:30;;;;;;;0.10;0.10;;;15.60;99.90;;;16.82;54.25;102073.19;4953648;28;97163;-47
2022/10/09 06:53:59;;;;;;;0.20;0.20;;;15.80;99.90;;;16.92;54.17;102077.22;4945215;28;98305;-45
2022/10/09 06:56:28;;;;;;;0.40;0.23;;;16.00;99.90;;;17.01;53.98;102081.31;4949200;28;98574;-46
2022/10/09 06:58:54;;;;;;;0.57;0.20;;;16.20;99.90;;;17.09;53.64;102078.34;4946380;28;97416;-46
2022/10/09 07:01:26;;;;;;;0.30;0.20;;;16.30;99.90;;;17.14;53.43;102081.69;4953600;28;97231;-46
2022/10/09 07:04:06;;;;;;;0.43;0.20;;;16.40;99.90;;;17.18;53.14;102078.81;4949400;28;97290;-45
2022/10/09 07:06:36;;;;;;;0.30;0.30;;;16.40;99.90;;;17.22;53.22;102084.91;4950624;28;97992;-46
2022/10/09 07:09:06;;;;;;;1.97;0.37;;;16.50;99.90;;;17.25;52.81;102079.44;4947093;28;100829;-48
2022/10/09 07:11:36;;;;;;;0.27;0.20;;;16.50;99.90;;;17.24;52.98;102073.25;4952319;28;96936;-49
2022/10/09 07:14:05;;;;;;;0.43;0.30;;;16.50;99.90;;;17.22;52.56;102075.13;4951684;28;97412;-46
2022/10/09 07:16:39;;;;;;;0.70;0.40;;;16.50;99.90;;;17.18;52.94;102073.47;4953494;28;97597;-47
2022/10/09 07:19:09;;;;;;;0.20;0.20;;;16.40;99.90;;;17.23;52.96;102079.53;4950238;28;99955;-45
2022/10/09 07:21:37;;;;;;;0.20;0.20;;;16.40;99.90;;;17.30;52.66;102071.25;4949109;28;97153;-46
2022/10/09 07:24:04;;;;;;;0.50;0.10;;;16.60;99.90;;;17.32;52.82;102075.59;4951774;28;97509;-46
2022/10/09 07:26:33;;;;;;;0.30;0.30;;;16.60;99.90;;;17.24;49.27;102077.72;4959218;28;97307;-49
2022/10/09 07:28:59;;;;;;;0.30;0.10;;;16.50;98.50;;;17.19;52.92;102069.00;4951289;28;99627;-46
2022/10/09 07:31:25;;;;;;;0.10;0.10;;;16.30;99.90;;;17.19;53.00;102077.00;4955029;28;97267;-45
2022/10/09 07:33:54;;;;;;;0.40;0.30;;;16.30;99.90;;;17.07;52.73;102077.50;4946814;28;97804;-45
2022/10/09 07:36:20;;;;;;;0.23;0.17;;;16.20;99.90;;;16.99;53.37;102072.50;4950402;28;98044;-44
2022/10/09 07:38:54;;;;;;;0.20;0.20;;;16.00;99.90;;;16.97;52.13;102068.16;4951927;28;96934;-46
2022/10/09 07:41:21;;;;;;;0.37;0.33;;;16.00;99.90;;;16.90;53.80;102071.06;4958002;28;96689;-48
2022/10/09 07:43:47;;;;;;;0.20;0.20;;;15.90;99.90;;;17.18;53.28;102072.63;4956954;28;97366;-49
2022/10/09 07:46:19;;;;;;;0.10;0.10;;;16.40;99.90;;;17.37;53.01;102067.41;4955717;28;99242;-45
2022/10/09 07:48:45;;;;;;;1.40;0.30;;;16.80;99.90;;;17.44;52.36;102068.88;4941303;28;98660;-45
2022/10/09 07:51:21;;;;;;;0.57;0.30;;;16.90;99.90;;;17.43;50.61;102068.00;4946279;28;97999;-51
2022/10/09 07:53:48;;;;;;;0.47;0.47;;;16.90;98.90;;;17.31;49.16;102073.84;4941977;28;102642;-47
2022/10/09 07:56:28;;;;;;;0.13;0.10;;;16.60;99.90;;;17.25;52.83;102068.78;4944303;28;100138;-45
2022/10/09 07:59:03;;;;;;;0.73;0.30;;;16.50;99.90;;;17.35;52.58;102070.13;4933410;28;97248;-46
2022/10/09 08:01:30;;;;;;;0.57;0.37;;;16.60;99.90;;;16.99;45.93;102061.84;4939070;28;97385;-46
2022/10/09 08:03:59;;;;;;;0.83;0.43;;;16.40;99.00;;;16.88;51.05;102067.59;4932693;28;99064;-47
2022/10/09 08:06:26;;;;;;;0.80;0.50;;;16.10;99.80;;;16.67;49.19;102063.13;4938513;28;99384;-45
2022/10/09 08:08:55;;;;;;;0.30;0.30;;;15.80;99.80;;;16.55;46.99;102066.22;4935636;28;97233;-46
2022/10/09 08:11:23;;;;;;;0.63;0.30;;;15.70;99.90;;;16.49;53.75;102066.44;4939604;28;99123;-45
2022/10/09 08:13:50;;;;;;;0.33;0.33;;;15.60;99.90;;;16.50;54.85;102053.09;4936260;28;98254;-49
2022/10/09 08:16:18;;;;;;;0.07;0.07;;;15.60;99.90;;;16.71;54.54;102059.41;4937102;28;97764;-45
2022/10/09 08:18:44;;;;;;;0.00;0.00;;;15.90;99.90;;;16.83;53.64;102058.91;4934446;28;98126;-49
2022/10/09 08:21:17;;;;;;;0.20;0.20;;;16.20;99.90;;;16.70;47.58;102060.31;4940618;28;99560;-46
2022/10/09 08:23:44;;;;;;;0.20;0.20;;;16.10;99.90;;;16.74;54.08;102059.28;4934050;28;96994;-50
2022/10/09 08:26:18;;;;;;;0.23;0.23;;;16.00;99.90;;;16.81;53.99;102051.91;4939705;28;97543;-44
2022/10/09 08:28:53;;;;;;;0.43;0.30;;;16.10;99.90;;;17.05;53.50;102055.38;4936444;28;97429;-44
2022/10/09 08:31:19;;;;;;;0.73;0.30;;;16.40;99.90;;;17.25;52.75;102053.66;4940414;28;97458;-48
2022/10/09 08:33:45;;;;;;;0.20;0.20;;;16.80;99.90;;;17.56;52.04;102041.69;4936165;28;97375;-49
2022/10/09 08:36:15;;;;;;;1.37;0.33;;;17.30;99.90;;;17.59;49.67;102041.53;4939839;28;97741;-47
2022/10/09 08:38:42;;;;;;;0.90;0.50;;;17.30;99.60;;;17.59;47.24;102041.53;4936125;28;99876;-48
2022/10/09 08:41:31;;;;;;;1.53;0.43;;;17.20;99.90;;;17.57;51.53;102035.41;4940675;28;99957;-45
2022/10/09 08:44:08;;;;;;;0.53;0.27;;;17.10;99.90;;;17.91;51.20;102033.97;4913183;28;99759;-47
2022/10/09 08:47:16;;;;;;;0.40;0.30;;;17.60;99.90;;;18.11;50.61;102029.47;4937282;28;99657;-50
2022/10/09 08:49:53;;;;;;;0.43;0.43;;;17.90;99.90;;;18.22;50.10;102033.44;4935193;28;96919;-46
2022/10/09 08:52:27;;;;;;;0.80;0.40;;;18.00;99.90;;;18.25;49.84;102025.31;4940004;28;97356;-50
2022/10/09 08:54:56;;;;;;;0.13;0.13;;;18.00;99.90;;;18.21;50.16;102023.69;4933791;28;97458;-47
2022/10/09 08:57:33;;;;;;;0.10;0.10;;;18.00;99.90;;;18.32;50.02;102021.41;4935475;28;97528;-47
2022/10/09 08:59:59;;;;;;;0.57;0.30;;;18.10;99.90;;;18.41;48.49;102021.84;4934209;28;101731;-50
2022/10/09 09:02:50;;;;;;;0.27;0.20;;;18.30;99.00;;;18.49;49.77;102017.94;4938109;28;97033;-50
2022/10/09 09:05:39;;;;;;;0.20;0.20;;;18.30;99.90;;;18.59;49.11;102009.41;4949048;28;98157;-50
2022/10/09 09:08:55;;;;;;;0.40;0.30;;;18.50;99.50;;;18.69;47.08;102012.56;4934280;28;101615;-49
2022/10/09 09:11:42;;;;;;;0.20;0.20;;;18.60;99.90;;;18.81;48.91;102008.44;4847153;28;101209;-48
2022/10/09 09:14:46;;;;;;;0.20;0.20;;;18.80;99.90;;;18.95;48.74;102005.91;4934099;28;99229;-51
2022/10/09 09:17:58;;;;;;;1.60;0.20;;;19.00;99.90;;;19.01;48.41;102006.50;4931040;28;99568;-44
2022/10/09 09:20:48;;;;;;;0.43;0.30;;;19.00;99.00;;;19.00;48.61;101998.53;4934852;28;101670;-47
2022/10/09 09:23:15;;;;;;;0.10;0.10;;;18.90;99.90;;;19.06;48.38;101998.22;4933171;28;101477;-46
2022/10/09 09:25:44;;;;;;;0.30;0.30;;;19.10;99.90;;;19.15;48.18;102007.63;4928799;28;97608;-48
2022/10/09 09:28:32;;;;;;;0.97;0.20;;;19.20;99.50;;;19.22;47.29;101993.84;4937807;28;97015;-45
2022/10/09 09:31:08;;;;;;;0.37;0.20;;;19.30;98.40;;;19.26;47.95;101995.44;4934724;28;99336;-51
2022/10/09 09:34:10;;;;;;;0.37;0.30;;;19.20;99.80;;;19.15;48.02;101991.56;4936640;28;97333;-48
2022/10/09 09:36:47;;;;;;;0.73;0.10;;;19.00;99.90;;;19.19;48.14;101982.44;4930504;28;97542;-50
2022/10/09 09:39:14;;;;;;;0.40;0.33;;;19.10;99.90;;;19.24;47.94;101981.28;4937342;28;99260;-49
2022/10/09 09:41:42;;;;;;;1.43;0.20;;;19.30;99.70;;;19.23;47.60;101979.50;4933759;28;97727;-50
2022/10/09 09:44:14;;;;;;;0.23;0.13;;;19.20;98.80;;;19.29;47.94;101973.88;4937157;28;98844;-47
2022/10/09 09:46:41;;;;;;;0.10;0.07;;;19.30;99.60;;;19.31;47.74;101971.13;4930609;28;97352;-45
2022/10/09 09:49:26;;;;;;;0.70;0.20;;;19.40;99.50;;;19.38;47.46;101966.28;4931511;28;98680;-52
2022/10/09 09:51:54;;;;;;;0.10;0.10;;;19.40;98.90;;;19.35;44.96;101961.09;4933752;28;97448;-49
2022/10/09 09:54:25;;;;;;;0.30;0.20;;;19.40;97.60;;;19.41;47.12;101950.09;4936148;28;97095;-47
2022/10/09 09:56:57;;;;;;;0.37;0.33;;;19.40;98.30;;;19.35;47.21;101956.63;4931299;28;97046;-47
2022/10/09 09:59:31;;;;;;;0.20;0.20;;;19.30;99.20;;;19.39;47.59;101947.50;4935421;28;97387;-51
2022/10/09 10:02:02;;;;;;;0.53;0.20;;;19.40;99.30;;;19.39;45.36;101943.97;4933195;28;98021;-46
2022/10/09 10:04:28;;;;;;;0.43;0.20;;;19.30;97.30;;;19.40;47.38;101935.00;4937101;28;98220;-48
2022/10/09 10:06:54;;;;;;;0.20;0.10;;;19.40;99.50;;;19.46;46.74;101937.34;4931780;28;100306;-46
2022/10/09 10:09:20;;;;;;;0.20;0.20;;;19.50;98.30;;;19.40;45.39;101932.31;4935622;28;99104;-46
2022/10/09 10:12:02;;;;;;;0.17;0.10;;;19.40;97.40;;;19.45;47.14;101933.81;4928109;28;97482;-50
2022/10/09 10:14:30;;;;;;;0.20;0.20;;;19.40;99.20;;;19.50;47.05;101917.50;4938204;28;97748;-49
2022/10/09 10:16:59;;;;;;;0.10;0.10;;;19.50;99.00;;;19.50;47.18;101923.72;4933165;28;99226;-49
2022/10/09 10:19:34;;;;;;;0.37;0.10;;;19.50;99.00;;;19.57;47.13;101918.94;4935911;28;98617;-44
2022/10/09 10:22:22;;;;;;;0.10;0.10;;;19.70;98.80;;;19.58;46.88;101924.22;4935796;28;101637;-49
2022/10/09 10:24:49;;;;;;;0.47;0.40;;;19.70;98.00;;;19.60;46.92;101918.78;4944477;28;97046;-45
2022/10/09 10:27:29;;;;;;;0.30;0.30;;;19.80;98.60;;;19.57;47.29;101913.59;4946257;28;115932;-49